Time;durP1;ratioP1;P1;durP2;ratioP2;P2;SDS_P1;SDS_P2;PMS_P1;PMS_P2;Temp;Humidity;BMP_temperature;BMP_pressure;BME280_temperature;BME280_humidity;BME280_pressure;Samples;Min_cycle;Max_cycle;Signal;HPM_P1;HPM_P2
2024/03/21 00:00:10;;;;;;;;;;;12.30;99.90;;;12.75;66.89;100661.53;5115701;28;19930;-80
2024/03/21 00:02:38;;;;;;;;;;;12.30;99.90;;;12.76;66.57;100659.66;5116458;28;19946;-80
2024/03/21 00:12:39;;;;;;;;;;;12.20;99.90;;;12.65;66.63;100663.88;5095705;28;19926;-80
2024/03/21 00:15:08;;;;;;;;;;;12.20;99.90;;;12.61;66.78;100662.69;5094497;28;19931;-80
2024/03/21 00:17:36;;;;;;;;;;;12.10;99.90;;;12.57;66.73;100664.97;5043498;28;20006;-80
2024/03/21 00:20:03;;;;;;;;;;;12.10;99.90;;;12.54;66.83;100664.59;5094076;28;20486;-80
2024/03/21 00:22:32;;;;;;;;;;;12.10;99.90;;;12.52;66.97;100656.78;5095246;28;19935;-80
2024/03/21 00:24:58;;;;;;;;;;;12.10;99.90;;;12.54;66.75;100660.06;5095084;28;20339;-80
2024/03/21 00:27:26;;;;;;;;;;;12.00;99.90;;;12.53;66.81;100658.41;5094014;28;20437;-80
2024/03/21 00:29:52;;;;;;;;;;;12.00;99.90;;;12.52;66.93;100654.09;5073592;28;19931;-80
2024/03/21 00:32:22;;;;;;;;;;;12.00;99.90;;;12.51;67.11;100649.81;5073217;28;19928;-80
2024/03/21 00:34:48;;;;;;;;;;;11.90;99.90;;;12.49;66.86;100654.56;5074115;28;19925;-80
2024/03/21 00:37:15;;;;;;;;;;;12.00;99.90;;;12.49;66.92;100661.75;5074281;28;19932;-80
2024/03/21 00:39:44;;;;;;;;;;;12.00;99.90;;;12.49;67.35;100651.03;5111197;28;20022;-80
2024/03/21 00:42:11;;;;;;;;;;;11.90;99.90;;;12.49;66.97;100646.53;5096352;28;19928;-80
2024/03/21 00:44:38;;;;;;;;;;;12.00;99.90;;;12.50;67.17;100655.38;5114294;28;19969;-80
2024/03/21 00:47:05;;;;;;;;;;;11.90;99.90;;;12.49;67.16;100661.75;5097296;28;19923;-80
2024/03/21 00:49:33;;;;;;;;;;;11.90;99.90;;;12.46;67.11;100652.31;5113518;28;19923;-80
2024/03/21 00:51:59;;;;;;;;;;;11.90;99.90;;;12.46;67.29;100662.19;5113968;28;20006;-80
2024/03/21 00:54:27;;;;;;;;;;;11.90;99.90;;;12.46;67.63;100668.38;5115289;28;19931;-80
2024/03/21 00:56:53;;;;;;;;;;;11.90;99.90;;;12.46;67.66;100659.53;5114536;28;19924;-80
2024/03/21 00:59:23;;;;;;;;;;;11.90;99.90;;;12.46;67.66;100670.22;5078825;28;19996;-80
2024/03/21 01:01:50;;;;;;;;;;;11.90;99.90;;;12.46;67.88;100676.41;5113393;28;20010;-80
2024/03/21 01:04:17;;;;;;;;;;;11.90;99.90;;;12.45;68.14;100671.28;5113225;28;20310;-80
2024/03/21 01:06:45;;;;;;;;;;;11.90;99.90;;;12.44;68.24;100678.44;5112881;28;20014;-80
2024/03/21 01:09:15;;;;;;;;;;;11.90;99.90;;;12.44;68.50;100688.34;5114988;28;19931;-80
2024/03/21 01:11:42;;;;;;;;;;;11.90;99.90;;;12.44;68.48;100681.13;5114864;28;19924;-80
2024/03/21 01:14:09;;;;;;;;;;;11.90;99.90;;;12.43;68.60;100676.00;5095831;28;19924;-80
2024/03/21 01:16:35;;;;;;;;;;;11.90;99.90;;;12.44;68.89;100685.66;5130662;27;19923;-80
2024/03/21 01:19:02;;;;;;;;;;;12.00;99.90;;;12.48;68.63;100682.34;5113193;28;20314;-80
2024/03/21 01:21:29;;;;;;;;;;;12.10;99.90;;;12.51;68.83;100691.78;5116259;28;20351;-80
2024/03/21 01:23:58;;;;;;;;;;;12.00;99.90;;;12.52;68.90;100682.72;5112177;28;19931;-80
2024/03/21 01:26:24;;;;;;;;;;;12.00;99.90;;;12.54;68.98;100680.63;5098468;28;20348;-80
2024/03/21 01:28:52;;;;;;;;;;;12.00;99.90;;;12.58;68.88;100687.19;5097460;28;19928;-80
2024/03/21 01:31:20;;;;;;;;;;;12.10;99.90;;;12.61;68.91;100692.13;5098131;28;20349;-80
2024/03/21 01:33:48;;;;;;;;;;;12.20;99.90;;;12.60;69.10;100685.13;5082683;28;20379;-80
2024/03/21 01:36:15;;;;;;;;;;;12.10;99.90;;;12.61;69.24;100686.75;5083208;28;19977;-80
2024/03/21 01:38:42;;;;;;;;;;;12.20;99.90;;;12.63;69.23;100685.50;5118529;28;19924;-80
2024/03/21 01:41:09;;;;;;;;;;;12.20;99.90;;;12.65;69.26;100679.13;5118462;28;19924;-80
2024/03/21 01:43:39;;;;;;;;;;;12.20;99.90;;;12.67;69.33;100677.03;5100180;28;20064;-80
2024/03/21 01:46:16;;;;;;;;;;;12.20;99.90;;;12.67;69.44;100675.19;5100151;28;19946;-80
2024/03/21 01:48:45;;;;;;;;;;;12.20;99.90;;;12.68;69.30;100682.16;5118661;28;20356;-80
2024/03/21 01:51:11;;;;;;;;;;;12.20;99.90;;;12.68;69.50;100684.84;5083666;28;20019;-80
2024/03/21 01:53:40;;;;;;;;;;;12.20;99.90;;;12.67;69.80;100688.56;5100137;28;20310;-80
2024/03/21 01:56:09;;;;;;;;;;;12.20;99.90;;;12.67;69.76;100688.56;5101165;28;20360;-80
2024/03/21 01:58:36;;;;;;;;;;;12.20;99.90;;;12.68;69.79;100695.53;5099850;28;19924;-80
2024/03/21 02:01:19;;;;;;;;;;;12.20;99.90;;;12.70;69.94;100695.34;5118279;28;19982;-80
2024/03/21 02:03:46;;;;;;;;;;;12.20;99.90;;;12.71;69.68;100697.78;5080443;28;19924;-80
2024/03/21 02:06:13;;;;;;;;;;;12.30;99.90;;;12.75;69.66;100706.19;5079719;28;19924;-80
2024/03/21 02:08:40;;;;;;;;;;;12.30;99.90;;;12.74;69.74;100705.38;5078980;28;20383;-80
2024/03/21 02:11:07;;;;;;;;;;;12.30;99.90;;;12.74;69.70;100697.34;5063288;28;19931;-80
2024/03/21 02:13:35;;;;;;;;;;;12.30;99.90;;;12.76;69.62;100700.63;5079550;28;19977;-80
2024/03/21 02:16:02;;;;;;;;;;;12.30;99.90;;;12.79;69.55;100704.72;5097525;28;19960;-80
2024/03/21 02:18:29;;;;;;;;;;;12.30;99.90;;;12.80;69.50;100704.50;5079439;28;19924;-80
2024/03/21 02:20:55;;;;;;;;;;;12.40;99.90;;;12.82;69.60;100710.44;5079322;28;20379;-80
2024/03/21 02:23:24;;;;;;;;;;;12.40;99.90;;;12.85;69.41;100704.66;5097387;28;20422;-80
2024/03/21 02:25:51;;;;;;;;;;;12.40;99.90;;;12.87;69.42;100702.56;5097890;28;19990;-80
2024/03/21 02:28:18;;;;;;;;;;;12.40;99.90;;;12.88;69.38;100703.38;5097639;28;19982;-80
2024/03/21 02:30:46;;;;;;;;;;;12.50;99.90;;;12.88;69.58;100701.56;5098752;28;20383;-80
2024/03/21 02:33:13;;;;;;;;;;;12.50;99.90;;;12.89;69.20;100705.88;5096096;28;19924;-80
2024/03/21 02:35:40;;;;;;;;;;;12.50;99.90;;;12.91;69.31;100694.94;5097666;28;19924;-80
2024/03/21 02:38:06;;;;;;;;;;;12.50;99.90;;;12.92;69.61;100703.78;5079294;28;19928;-80
2024/03/21 02:40:35;;;;;;;;;;;12.50;99.90;;;12.93;69.47;100705.41;5078812;28;19924;-80
2024/03/21 02:43:02;;;;;;;;;;;12.50;99.90;;;12.93;69.12;100708.06;5097260;28;20015;-80
2024/03/21 02:45:29;;;;;;;;;;;12.50;99.90;;;12.92;69.59;100717.16;5096874;28;20011;-80
2024/03/21 02:47:55;;;;;;;;;;;12.50;99.90;;;12.90;69.68;100701.31;5078366;28;20387;-80
2024/03/21 02:50:22;;;;;;;;;;;12.50;99.90;;;12.93;69.56;100708.06;5062716;28;19924;-80
2024/03/21 02:52:49;;;;;;;;;;;12.50;99.90;;;12.93;69.71;100702.72;5061985;28;19924;-80
2024/03/21 02:55:16;;;;;;;;;;;12.50;99.90;;;12.94;69.92;100709.75;5078472;28;19946;-80
2024/03/21 02:57:44;;;;;;;;;;;12.50;99.90;;;12.93;69.92;100710.75;5078712;28;19924;-80
2024/03/21 03:00:14;;;;;;;;;;;12.50;99.90;;;12.93;69.77;100710.75;5078608;28;19951;-80
2024/03/21 03:02:41;;;;;;;;;;;12.50;99.90;;;12.94;69.66;100712.41;5096614;28;19928;-80
2024/03/21 03:05:10;;;;;;;;;;;12.50;99.90;;;12.94;69.91;100717.78;5078685;28;19931;-80
2024/03/21 03:07:37;;;;;;;;;;;12.50;99.90;;;12.92;70.29;100717.97;5079012;28;20374;-80
2024/03/21 03:10:04;;;;;;;;;;;12.50;99.90;;;12.91;70.51;100713.66;5078049;28;20448;-80
2024/03/21 03:12:31;;;;;;;;;;;12.50;99.90;;;12.92;70.70;100719.84;5078153;28;19970;-80
2024/03/21 03:14:59;;;;;;;;;;;12.50;99.90;;;12.91;70.73;100729.72;5076481;28;19977;-80
2024/03/21 03:17:25;;;;;;;;;;;12.50;99.90;;;12.91;70.36;100724.38;5098181;28;19923;-80
2024/03/21 03:19:53;;;;;;;;;;;12.50;99.90;;;12.92;70.41;100723.31;5113979;28;19946;-80
2024/03/21 03:22:19;;;;;;;;;;;12.50;99.90;;;12.91;71.14;100707.50;5076251;28;19928;-80
2024/03/21 03:24:46;;;;;;;;;;;12.50;99.90;;;12.92;71.47;100711.81;5057866;28;19924;-80
2024/03/21 03:27:12;;;;;;;;;;;12.50;99.90;;;12.92;71.58;100712.63;5066188;28;20379;-80
2024/03/21 03:29:39;;;;;;;;;;;12.50;99.90;;;12.93;71.63;100713.44;5077881;28;19931;-80
2024/03/21 03:32:08;;;;;;;;;;;12.50;99.90;;;12.95;71.36;100722.09;5078342;28;19952;-80
2024/03/21 03:37:20;;;;;;;;;;;12.60;99.90;;;12.96;70.80;100726.38;5077620;28;19924;-80
2024/03/21 03:39:47;;;;;;;;;;;12.60;99.90;;;12.95;71.39;100719.41;5096453;28;19923;-80
2024/03/21 03:42:14;;;;;;;;;;;12.50;99.90;;;12.94;71.21;100725.81;5078194;28;20302;-80
2024/03/21 03:44:41;;;;;;;;;;;12.50;99.90;;;12.94;71.15;100723.13;5095594;28;19928;-80
2024/03/21 03:47:10;;;;;;;;;;;12.50;99.90;;;12.95;71.13;100730.13;5095236;28;19931;-80
2024/03/21 03:49:36;;;;;;;;;;;12.50;99.90;;;12.94;71.11;100734.66;5089029;28;19923;-80
2024/03/21 03:52:04;;;;;;;;;;;12.50;99.90;;;12.91;71.26;100740.44;5115280;28;20452;-80
2024/03/21 03:54:30;;;;;;;;;;;12.50;99.90;;;12.92;70.99;100730.53;5097290;28;19924;-80
2024/03/21 03:56:58;;;;;;;;;;;12.50;99.90;;;12.93;71.18;100745.56;5115525;28;19924;-80
2024/03/21 03:59:24;;;;;;;;;;;12.50;99.90;;;12.92;71.32;100739.38;5080438;28;19930;-80
2024/03/21 04:01:52;;;;;;;;;;;12.50;99.90;;;12.93;71.40;100742.88;5097636;28;19980;-80
2024/03/21 04:04:20;;;;;;;;;;;12.50;99.90;;;12.92;71.57;100743.94;5115565;28;19924;-80
2024/03/21 04:06:47;;;;;;;;;;;12.50;99.90;;;12.93;71.45;100748.22;5097046;28;19924;-80
2024/03/21 04:09:13;;;;;;;;;;;12.50;99.90;;;12.93;71.38;100741.03;5115053;28;19974;-80
2024/03/21 04:11:41;;;;;;;;;;;12.50;99.90;;;12.96;71.33;100747.81;5097583;28;19927;-80
2024/03/21 04:14:07;;;;;;;;;;;12.60;99.90;;;12.96;71.23;100753.97;5095196;28;19924;-80
2024/03/21 04:16:35;;;;;;;;;;;12.60;99.90;;;12.96;71.21;100758.53;5079739;28;19930;-80
2024/03/21 04:19:01;;;;;;;;;;;12.60;99.90;;;12.98;71.30;100762.63;5080164;28;19993;-80
2024/03/21 04:21:29;;;;;;;;;;;12.60;99.90;;;12.99;71.07;100774.97;5115587;28;19923;-80
2024/03/21 04:23:56;;;;;;;;;;;12.60;99.90;;;12.98;71.30;100777.84;5115534;28;19970;-80
2024/03/21 04:26:23;;;;;;;;;;;12.60;99.90;;;12.99;71.51;100787.53;5114853;28;19924;-80
2024/03/21 04:28:49;;;;;;;;;;;12.60;99.90;;;12.98;71.36;100778.69;5114699;28;20452;-80
2024/03/21 04:31:16;;;;;;;;;;;12.60;99.90;;;12.98;71.35;100789.41;5109496;28;20386;-80
2024/03/21 04:33:43;;;;;;;;;;;12.60;99.90;;;12.99;71.22;100782.19;5115036;28;20345;-80
2024/03/21 04:36:10;;;;;;;;;;;12.60;99.90;;;12.98;71.29;100799.25;5114704;28;19938;-80
2024/03/21 04:38:39;;;;;;;;;;;12.60;99.90;;;12.98;71.30;100807.28;5113687;28;19972;-80
2024/03/21 04:41:06;;;;;;;;;;;12.60;99.90;;;12.94;71.49;100819.50;5115031;28;19924;-80
2024/03/21 04:43:33;;;;;;;;;;;12.60;99.90;;;12.89;71.72;100812.94;5115073;28;20444;-80
2024/03/21 04:46:01;;;;;;;;;;;12.60;99.90;;;12.90;71.31;100819.13;5096221;28;19963;-80
2024/03/21 04:48:28;;;;;;;;;;;12.60;99.90;;;12.84;71.68;100820.81;5093463;28;19928;-80
2024/03/21 04:50:54;;;;;;;;;;;12.60;99.90;;;12.82;71.46;100830.06;5093137;28;19983;-80
2024/03/21 04:53:23;;;;;;;;;;;12.50;99.90;;;12.81;71.50;100831.94;5094437;28;19928;-80
2024/03/21 04:55:51;;;;;;;;;;;12.50;99.90;;;12.77;71.83;100840.63;5076087;28;19931;-80
2024/03/21 04:58:21;;;;;;;;;;;12.50;99.90;;;12.74;71.89;100833.84;5094472;28;19928;-80
2024/03/21 05:00:48;;;;;;;;;;;12.50;99.90;;;12.75;71.62;100834.66;5094773;28;19924;-80
2024/03/21 05:03:15;;;;;;;;;;;12.40;99.90;;;12.75;71.63;100838.16;5095698;28;19924;-80
2024/03/21 05:05:41;;;;;;;;;;;12.40;99.90;;;12.75;71.47;100848.06;5114922;28;20370;-80
2024/03/21 05:08:08;;;;;;;;;;;12.40;99.90;;;12.73;71.72;100848.25;5115158;28;19923;-80
2024/03/21 05:10:34;;;;;;;;;;;12.40;99.90;;;12.67;72.25;100846.44;5100471;28;19931;-80
2024/03/21 05:13:03;;;;;;;;;;;12.30;99.90;;;12.65;72.04;100824.44;5094918;28;19924;-80
2024/03/21 05:15:29;;;;;;;;;;;12.30;99.90;;;12.63;71.99;100832.66;5094923;28;20395;-80
2024/03/21 05:17:56;;;;;;;;;;;12.30;99.90;;;12.61;72.04;100845.44;5093975;28;19924;-80
2024/03/21 05:20:27;;;;;;;;;;;12.30;99.90;;;12.61;72.15;100848.13;5094139;28;20379;-80
2024/03/21 05:22:54;;;;;;;;;;;12.30;99.90;;;12.61;71.98;100853.47;5094997;28;19932;-81
2024/03/21 05:25:20;;;;;;;;;;;12.20;99.90;;;12.59;71.75;100844.84;5093174;28;20347;-80
2024/03/21 05:27:47;;;;;;;;;;;12.20;99.90;;;12.56;72.05;100849.81;5093862;28;20026;-80
2024/03/21 05:30:15;;;;;;;;;;;12.10;99.90;;;12.54;72.20;100862.56;5093140;28;19931;-80
2024/03/21 05:32:43;;;;;;;;;;;12.20;99.90;;;12.55;71.73;100867.72;5094233;28;19928;-79
2024/03/21 05:35:09;;;;;;;;;;;12.10;99.90;;;12.55;71.54;100869.59;5093394;28;19924;-80
2024/03/21 05:37:37;;;;;;;;;;;12.10;99.90;;;12.51;72.16;100868.38;5076415;28;19932;-79
2024/03/21 05:40:04;;;;;;;;;;;12.10;99.90;;;12.51;72.12;100879.06;5078959;28;20023;-80
2024/03/21 05:42:31;;;;;;;;;;;12.10;99.90;;;12.52;72.39;100875.34;5114545;28;19930;-80
2024/03/21 05:44:57;;;;;;;;;;;12.20;99.90;;;12.56;72.45;100881.91;5116266;28;19924;-80
2024/03/21 05:47:26;;;;;;;;;;;12.10;99.90;;;12.57;72.53;100888.91;5115898;28;19923;-79
2024/03/21 05:49:52;;;;;;;;;;;12.30;99.90;;;12.56;72.57;100888.09;5102772;28;19955;-79
2024/03/21 05:52:19;;;;;;;;;;;12.20;99.90;;;12.56;72.53;100892.63;5077484;28;19924;-79
2024/03/21 05:54:48;;;;;;;;;;;12.20;99.90;;;12.57;72.79;100894.25;5113176;28;19930;-81
2024/03/21 05:57:15;;;;;;;;;;;12.20;99.90;;;12.56;73.07;100903.31;5114454;28;19924;-79
2024/03/21 05:59:42;;;;;;;;;;;12.20;99.90;;;12.56;73.05;100900.66;5114396;28;19930;-79
2024/03/21 06:02:09;;;;;;;;;;;12.20;99.90;;;12.59;73.17;100908.22;5112820;28;19931;-79
2024/03/21 06:04:37;;;;;;;;;;;12.20;99.90;;;12.59;73.44;100906.41;5110589;28;20354;-79
2024/03/21 06:07:05;;;;;;;;;;;12.20;99.90;;;12.60;73.24;100909.91;5115372;28;20022;-81
2024/03/21 06:09:32;;;;;;;;;;;12.30;99.90;;;12.62;73.38;100913.16;5102304;28;20031;-80
2024/03/21 06:12:00;;;;;;;;;;;12.30;99.90;;;12.62;73.39;100919.34;5098210;28;19932;-80
2024/03/21 06:14:27;;;;;;;;;;;12.30;99.90;;;12.60;73.65;100936.66;5081380;28;19960;-80
2024/03/21 06:16:54;;;;;;;;;;;12.30;99.90;;;12.54;73.75;100934.81;5099193;28;19931;-80
2024/03/21 06:19:20;;;;;;;;;;;12.20;99.90;;;12.55;73.80;100939.97;5105603;28;20387;-80
2024/03/21 06:21:49;;;;;;;;;;;12.30;99.90;;;12.50;73.84;100939.78;5112681;28;19923;-80
2024/03/21 06:24:15;;;;;;;;;;;12.30;99.90;;;12.51;73.98;100943.28;5113173;28;19930;-80
2024/03/21 06:26:42;;;;;;;;;;;12.30;99.90;;;12.44;73.96;100942.47;5089856;28;19954;-80
2024/03/21 06:29:09;;;;;;;;;;;12.20;99.90;;;12.44;74.24;100953.97;5099102;28;19925;-80
2024/03/21 06:31:37;;;;;;;;;;;12.20;99.90;;;12.41;74.37;100954.41;5107724;28;19924;-80
2024/03/21 06:34:03;;;;;;;;;;;12.20;99.90;;;12.45;74.37;100955.66;5097224;28;19978;-80
2024/03/21 06:36:30;;;;;;;;;;;12.20;99.90;;;12.51;74.15;100953.97;5056949;28;19924;-81
2024/03/21 06:38:58;;;;;;;;;;;12.30;99.90;;;12.52;74.11;100950.25;5095757;28;19924;-81
2024/03/21 06:41:26;;;;;;;;;;;12.30;99.90;;;12.46;74.20;100946.59;5078659;28;19924;-81
2024/03/21 06:43:52;;;;;;;;;;;12.30;99.90;;;12.50;73.95;100949.66;5107562;28;19924;-81
2024/03/21 06:46:19;;;;;;;;;;;12.30;99.90;;;12.54;73.93;100961.56;5096584;28;20390;-81
2024/03/21 06:48:46;;;;;;;;;;;12.20;99.90;;;12.58;73.84;100954.75;5104679;28;20506;-81
2024/03/21 06:51:13;;;;;;;;;;;12.30;99.90;;;12.60;73.77;100958.88;5098268;28;19928;-81
2024/03/21 06:53:40;;;;;;;;;;;12.30;99.90;;;12.63;73.36;100962.97;5097504;28;20280;-81
2024/03/21 06:56:09;;;;;;;;;;;12.40;99.90;;;12.68;73.42;100968.50;5100204;28;19930;-81
2024/03/21 06:58:35;;;;;;;;;;;12.40;99.90;;;12.68;73.00;100971.19;5118339;28;19953;-81
2024/03/21 07:01:03;;;;;;;;;;;12.40;99.90;;;12.59;72.69;100977.78;5108507;28;19928;-81
2024/03/21 07:03:30;;;;;;;;;;;12.30;99.90;;;12.60;72.87;100984.81;5097229;28;19931;-81
2024/03/21 07:05:57;;;;;;;;;;;12.30;99.90;;;12.53;72.72;100984.00;5096907;28;19924;-81
2024/03/21 07:08:23;;;;;;;;;;;12.20;99.90;;;12.55;72.97;100989.97;5079021;28;19924;-81
2024/03/21 07:10:51;;;;;;;;;;;12.30;99.90;;;12.56;73.23;100994.28;5097119;28;19930;-81
2024/03/21 07:13:18;;;;;;;;;;;12.30;99.90;;;12.59;72.84;100993.84;5097481;28;20430;-81
2024/03/21 07:15:46;;;;;;;;;;;12.30;99.90;;;12.61;72.03;100994.47;5097208;28;20302;-81
2024/03/21 07:18:13;;;;;;;;;;;12.40;99.90;;;12.61;71.63;101002.50;5096640;28;19924;-81
2024/03/21 07:20:40;;;;;;;;;;;12.40;99.90;;;12.61;71.07;101008.69;5095824;28;20352;-81
2024/03/21 07:23:07;;;;;;;;;;;12.40;99.90;;;12.61;70.84;101006.00;5095770;28;20041;-81
2024/03/21 07:25:35;;;;;;;;;;;12.40;99.90;;;12.58;70.91;101013.63;5095479;28;19924;-81
2024/03/21 07:28:02;;;;;;;;;;;12.40;99.90;;;12.65;70.55;101010.94;5095873;28;20314;-81
2024/03/21 07:30:31;;;;;;;;;;;12.50;99.90;;;12.66;70.33;101021.44;5078656;28;20398;-81
2024/03/21 07:32:57;;;;;;;;;;;12.50;99.90;;;12.66;69.92;101020.59;5104969;28;20306;-81
2024/03/21 07:35:25;;;;;;;;;;;12.50;99.90;;;12.65;69.38;101025.16;5114877;28;19931;-81
2024/03/21 07:37:52;;;;;;;;;;;12.50;99.90;;;12.68;69.47;101031.91;5114445;27;19931;-80
2024/03/21 07:40:19;;;;;;;;;;;12.40;99.90;;;12.63;68.90;101037.91;5096141;28;19993;-80
2024/03/21 07:42:49;;;;;;;;;;;12.50;99.90;;;12.63;69.17;101044.06;5106826;28;20306;-80
2024/03/21 07:45:17;;;;;;;;;;;12.50;99.90;;;12.50;68.94;101037.94;5114564;28;19931;-80
2024/03/21 07:47:44;;;;;;;;;;;12.40;99.90;;;12.49;69.35;101037.13;5101599;28;20007;-80
2024/03/21 07:50:12;;;;;;;;;;;12.40;99.90;;;12.52;69.15;101041.22;5100619;28;19994;-80
2024/03/21 07:52:38;;;;;;;;;;;12.30;99.90;;;12.60;69.82;101043.69;5113077;28;19966;-81
2024/03/21 07:55:06;;;;;;;;;;;12.40;99.90;;;12.59;69.62;101047.38;5109819;28;20391;-80
2024/03/21 07:57:32;;;;;;;;;;;12.40;99.90;;;12.55;68.95;101046.16;5096283;28;20306;-80
2024/03/21 07:59:59;;;;;;;;;;;12.40;99.90;;;12.40;68.52;101054.44;5107690;28;19924;-80
2024/03/21 08:02:25;;;;;;;;;;;12.30;99.90;;;12.40;69.38;101065.13;5114350;28;19927;-80
2024/03/21 08:04:54;;;;;;;;;;;12.30;99.90;;;12.47;68.64;101070.47;5096449;28;20383;-80
2024/03/21 08:07:20;;;;;;;;;;;12.30;99.90;;;12.54;68.90;101072.09;5100923;28;20301;-80
2024/03/21 08:09:48;;;;;;;;;;;12.40;99.90;;;12.53;68.09;101078.47;5103955;28;20390;-80
2024/03/21 08:12:15;;;;;;;;;;;12.40;99.90;;;12.48;67.84;101085.47;5095900;28;20011;-80
2024/03/21 08:14:42;;;;;;;;;;;12.40;99.90;;;12.46;67.92;101083.03;5098108;28;19925;-80
2024/03/21 08:17:09;;;;;;;;;;;12.30;99.90;;;12.45;67.79;101088.59;5111029;28;19928;-80
2024/03/21 08:19:36;;;;;;;;;;;12.30;99.90;;;12.48;67.10;101088.16;5102451;28;20357;-80
2024/03/21 08:22:04;;;;;;;;;;;12.40;99.90;;;12.52;67.20;101087.53;5109849;28;19992;-80
2024/03/21 08:24:32;;;;;;;;;;;12.40;99.90;;;12.35;65.49;101095.19;5098799;28;19924;-80
2024/03/21 08:27:02;;;;;;;;;;;12.30;99.90;;;12.36;66.57;101104.84;5096792;28;19938;-80
2024/03/21 08:29:29;;;;;;;;;;;12.30;99.90;;;12.42;66.45;101108.53;5114298;28;19924;-80
2024/03/21 08:31:56;;;;;;;;;;;12.30;99.90;;;12.37;66.01;101119.84;5110412;28;19977;-80
2024/03/21 08:34:24;;;;;;;;;;;12.30;99.90;;;12.39;64.58;101114.28;5051618;28;19928;-80
2024/03/21 08:36:50;;;;;;;;;;;12.30;99.90;;;12.42;65.14;101115.75;5096266;28;20443;-80
2024/03/21 08:39:18;;;;;;;;;;;12.30;99.90;;;12.63;66.12;101123.53;5113093;28;19923;-80
2024/03/21 08:41:45;;;;;;;;;;;12.50;99.90;;;12.75;65.76;101126.41;5092246;28;19956;-80
2024/03/21 08:44:12;;;;;;;;;;;12.60;99.90;;;12.82;65.86;101132.56;5039431;28;19925;-80
2024/03/21 08:46:38;;;;;;;;;;;12.70;99.90;;;12.80;65.11;101130.09;5060602;28;20295;-80
2024/03/21 08:49:05;;;;;;;;;;;12.70;99.90;;;12.82;65.50;101141.41;5100077;28;19924;-80
2024/03/21 08:51:31;;;;;;;;;;;12.70;99.90;;;12.80;64.92;101140.81;5096900;28;19924;-80
2024/03/21 08:53:59;;;;;;;;;;;12.70;99.90;;;12.83;65.52;101159.13;5093407;28;20383;-80
2024/03/21 08:56:27;;;;;;;;;;;12.70;99.90;;;12.82;65.59;101162.81;5101962;28;20314;-80
2024/03/21 08:58:55;;;;;;;;;;;12.70;99.90;;;12.75;65.10;101161.19;5104436;28;19949;-80
2024/03/21 09:01:21;;;;;;;;;;;12.60;99.90;;;12.75;66.08;101159.34;5090144;28;20340;-80
2024/03/21 09:03:48;;;;;;;;;;;12.60;99.90;;;12.72;66.09;101157.06;5079838;28;19976;-80
2024/03/21 09:06:16;;;;;;;;;;;12.60;99.90;;;12.57;65.91;101169.84;5098393;28;19924;-80
2024/03/21 09:08:43;;;;;;;;;;;12.50;99.90;;;12.63;65.63;101171.69;5076676;28;19949;-80
2024/03/21 09:11:10;;;;;;;;;;;12.50;99.90;;;12.66;65.97;101162.44;5101708;28;20310;-80
2024/03/21 09:13:38;;;;;;;;;;;12.50;99.90;;;12.66;65.69;101168.63;5129528;28;19936;-81
2024/03/21 09:16:07;;;;;;;;;;;12.50;99.90;;;12.60;65.16;101166.78;5111986;28;19972;-80
2024/03/21 09:18:35;;;;;;;;;;;12.50;99.90;;;12.55;65.08;101169.25;5096131;28;19931;-80
2024/03/21 09:21:02;;;;;;;;;;;12.40;99.90;;;12.58;65.47;101169.63;5095884;28;19962;-80
2024/03/21 09:23:30;;;;;;;;;;;12.40;99.90;;;12.53;64.67;101176.66;5097515;28;19946;-80
2024/03/21 09:25:59;;;;;;;;;;;12.40;99.90;;;12.56;64.62;101173.56;5089489;28;19924;-81
2024/03/21 09:28:26;;;;;;;;;;;12.40;99.90;;;12.57;64.82;101164.50;5094242;28;19946;-80
2024/03/21 09:30:54;;;;;;;;;;;12.40;99.90;;;12.46;64.46;101179.34;5093385;28;19934;-80
2024/03/21 09:33:22;;;;;;;;;;;12.40;99.90;;;12.42;65.77;101180.78;5108040;28;19924;-80
2024/03/21 09:35:55;;;;;;;;;;;12.40;99.90;;;12.49;65.50;101191.47;5104482;28;20453;-80
2024/03/21 09:38:23;;;;;;;;;;;12.40;99.90;;;12.50;65.25;101185.91;5090950;28;19924;-80
2024/03/21 09:40:50;;;;;;;;;;;12.40;99.90;;;12.53;64.24;101184.66;5098345;28;19924;-80
2024/03/21 09:43:17;;;;;;;;;;;12.40;99.90;;;12.46;63.91;101178.50;5103401;28;19925;-80
2024/03/21 09:45:44;;;;;;;;;;;12.40;99.90;;;12.40;64.29;101182.03;5106842;28;20390;-80
2024/03/21 09:48:13;;;;;;;;;;;12.40;99.90;;;12.46;64.57;101175.84;5118286;28;19924;-80
2024/03/21 09:50:41;;;;;;;;;;;12.40;99.90;;;12.52;64.36;101169.66;5151960;27;19930;-80
2024/03/21 09:53:13;;;;;;;;;;;12.50;99.90;;;12.54;63.73;101180.97;5118223;28;19923;-80
2024/03/21 09:55:40;;;;;;;;;;;12.50;99.90;;;12.47;64.16;101180.16;5071888;28;19928;-80
2024/03/21 09:58:11;;;;;;;;;;;12.50;99.90;;;12.48;64.54;101181.78;5112823;28;20011;-80
2024/03/21 10:00:37;;;;;;;;;;;12.50;99.90;;;12.45;64.17;101193.75;5111008;28;19993;-80
2024/03/21 10:03:05;;;;;;;;;;;12.60;99.90;;;12.46;64.07;101194.56;5100956;28;19928;-80
2024/03/21 10:05:33;;;;;;;;;;;12.60;99.90;;;12.50;64.08;101199.31;5108139;28;19978;-80
2024/03/21 10:08:00;;;;;;;;;;;12.60;99.90;;;12.58;63.86;101206.28;5108523;28;19924;-80
2024/03/21 10:10:27;;;;;;;;;;;12.70;99.90;;;12.64;62.52;101218.84;5103635;28;19923;-80
2024/03/21 10:12:55;;;;;;;;;;;12.70;99.90;;;12.65;62.82;101220.50;5118986;28;19923;-80
2024/03/21 10:15:23;;;;;;;;;;;12.70;99.90;;;12.72;62.92;101207.09;5112470;28;19924;-80
2024/03/21 10:17:49;;;;;;;;;;;12.80;99.90;;;12.74;63.46;101223.81;5099124;28;19959;-80
2024/03/21 10:20:16;;;;;;;;;;;12.90;99.90;;;12.79;61.58;101227.50;5110258;28;19947;-80
2024/03/21 10:22:45;;;;;;;;;;;12.90;99.90;;;12.84;62.33;101226.88;5097950;28;20027;-80
2024/03/21 10:25:16;;;;;;;;;;;13.00;99.90;;;12.94;62.16;101223.78;5104801;28;19924;-80
2024/03/21 10:27:46;;;;;;;;;;;13.00;99.90;;;12.92;61.43;101223.97;5107712;28;19928;-80
2024/03/21 10:30:18;;;;;;;;;;;12.90;99.90;;;12.99;61.30;101234.69;5101491;28;19924;-81
2024/03/21 10:32:46;;;;;;;;;;;12.90;99.90;;;13.03;61.78;101236.75;5081214;28;19924;-80
2024/03/21 10:35:16;;;;;;;;;;;13.00;99.90;;;13.02;61.01;101243.09;5097632;28;19973;-80
2024/03/21 10:37:45;;;;;;;;;;;13.00;99.90;;;12.98;61.49;101249.94;5109274;28;19967;-80
2024/03/21 10:40:13;;;;;;;;;;;12.90;99.90;;;13.00;60.81;101258.56;5082120;28;19924;-80
2024/03/21 10:42:45;;;;;;;;;;;12.90;99.90;;;13.00;60.92;101258.56;5112706;27;19931;-80
2024/03/21 10:45:14;;;;;;;;;;;12.90;99.90;;;13.05;61.75;101250.72;5085567;28;19923;-81
2024/03/21 10:47:48;;;;;;;;;;;12.90;99.90;;;13.00;61.05;101268.47;5065519;28;19930;-82
2024/03/21 10:50:21;;;;;;;;;;;13.00;99.90;;;12.96;61.54;101251.16;5088840;28;19969;-81
2024/03/21 10:52:52;;;;;;;;;;;12.90;99.90;;;13.01;60.83;101262.06;5107188;28;19931;-80
2024/03/21 10:55:19;;;;;;;;;;;12.90;99.90;;;13.06;61.35;101262.25;5097383;28;19973;-80
2024/03/21 10:57:51;;;;;;;;;;;13.00;99.90;;;13.04;60.49;101259.00;5098818;28;19924;-80
2024/03/21 11:00:19;;;;;;;;;;;12.90;99.90;;;13.00;61.99;101260.44;5084729;28;20280;-80
2024/03/21 11:02:51;;;;;;;;;;;12.90;99.90;;;13.03;61.76;101265.34;5099487;28;20481;-80
2024/03/21 11:05:19;;;;;;;;;;;12.90;99.90;;;13.08;61.39;101269.06;5111572;28;19978;-80
2024/03/21 11:07:46;;;;;;;;;;;13.00;99.90;;;13.13;62.24;101263.91;5097262;28;19924;-80
2024/03/21 11:10:18;;;;;;;;;;;13.00;99.90;;;13.16;62.02;101257.31;5082041;28;19934;-80
2024/03/21 11:12:45;;;;;;;;;;;13.10;99.90;;;13.19;61.11;101272.97;5076347;28;19925;-80
2024/03/21 11:15:12;;;;;;;;;;;13.10;99.90;;;13.16;61.13;101278.72;5121178;27;19924;-80
2024/03/21 11:17:39;;;;;;;;;;;13.10;99.90;;;13.06;61.52;101275.66;5111240;28;19924;-80
2024/03/21 11:20:08;;;;;;;;;;;13.00;99.90;;;13.05;61.57;101274.84;5094583;28;19924;-80